sensor_id;sensor_type;location;lat;lon;timestamp;temperature;humidity
3868;DHT22;1949;48.152;11.528;2022-08-01T00:01:14;26.60;39.10
3868;DHT22;1949;48.152;11.528;2022-08-01T00:03:40;26.60;39.10
3868;DHT22;1949;48.152;11.528;2022-08-01T00:06:06;26.60;39.10
3868;DHT22;1949;48.152;11.528;2022-08-01T00:08:32;26.60;39.10
3868;DHT22;1949;48.152;11.528;2022-08-01T00:10:57;26.60;39.10
3868;DHT22;1949;48.152;11.528;2022-08-01T00:13:24;26.60;39.20
3868;DHT22;1949;48.152;11.528;2022-08-01T00:15:50;26.60;39.10
3868;DHT22;1949;48.152;11.528;2022-08-01T00:18:15;26.60;39.20
3868;DHT22;1949;48.152;11.528;2022-08-01T00:20:41;26.70;39.20
3868;DHT22;1949;48.152;11.528;2022-08-01T00:23:07;26.70;39.00
3868;DHT22;1949;48.152;11.528;2022-08-01T00:25:33;26.70;39.00
3868;DHT22;1949;48.152;11.528;2022-08-01T00:28:00;26.70;39.00
3868;DHT22;1949;48.152;11.528;2022-08-01T00:30:25;26.70;39.00
3868;DHT22;1949;48.152;11.528;2022-08-01T00:32:51;26.70;39.00
3868;DHT22;1949;48.152;11.528;2022-08-01T00:35:19;26.80;39.10
3868;DHT22;1949;48.152;11.528;2022-08-01T00:37:44;26.70;39.00
3868;DHT22;1949;48.152;11.528;2022-08-01T00:40:10;26.80;39.00
3868;DHT22;1949;48.152;11.528;2022-08-01T00:42:36;26.70;39.00
3868;DHT22;1949;48.152;11.528;2022-08-01T00:45:02;26.80;39.00
3868;DHT22;1949;48.152;11.528;2022-08-01T00:47:27;26.80;39.00
3868;DHT22;1949;48.152;11.528;2022-08-01T00:49:56;26.80;39.00
3868;DHT22;1949;48.152;11.528;2022-08-01T00:52:22;26.70;39.00
3868;DHT22;1949;48.152;11.528;2022-08-01T00:54:48;26.70;38.90
3868;DHT22;1949;48.152;11.528;2022-08-01T00:57:13;26.60;38.90
3868;DHT22;1949;48.152;11.528;2022-08-01T00:59:40;26.60;39.00
3868;DHT22;1949;48.152;11.528;2022-08-01T01:02:06;26.60;39.10
3868;DHT22;1949;48.152;11.528;2022-08-01T01:04:32;26.60;39.10
3868;DHT22;1949;48.152;11.528;2022-08-01T01:07:19;26.50;39.10
3868;DHT22;1949;48.152;11.528;2022-08-01T01:10:05;26.50;39.10
3868;DHT22;1949;48.152;11.528;2022-08-01T01:12:59;26.50;39.00
3868;DHT22;1949;48.152;11.528;2022-08-01T01:20:43;26.40;39.20
3868;DHT22;1949;48.152;11.528;2022-08-01T01:29:48;26.40;39.20
3868;DHT22;1949;48.152;11.528;2022-08-01T01:32:22;26.40;39.40
3868;DHT22;1949;48.152;11.528;2022-08-01T01:34:52;26.40;39.30
3868;DHT22;1949;48.152;11.528;2022-08-01T01:37:23;26.40;39.20
3868;DHT22;1949;48.152;11.528;2022-08-01T01:39:51;26.30;39.30
3868;DHT22;1949;48.152;11.528;2022-08-01T01:42:22;26.30;39.40
3868;DHT22;1949;48.152;11.528;2022-08-01T01:44:54;26.30;39.40
3868;DHT22;1949;48.152;11.528;2022-08-01T01:47:21;26.30;39.30
3868;DHT22;1949;48.152;11.528;2022-08-01T01:49:49;26.30;39.40
3868;DHT22;1949;48.152;11.528;2022-08-01T01:52:17;26.30;39.40
3868;DHT22;1949;48.152;11.528;2022-08-01T01:54:49;26.30;39.40
3868;DHT22;1949;48.152;11.528;2022-08-01T01:57:17;26.20;39.40
3868;DHT22;1949;48.152;11.528;2022-08-01T01:59:44;26.20;39.40
3868;DHT22;1949;48.152;11.528;2022-08-01T02:02:12;26.20;39.40
3868;DHT22;1949;48.152;11.528;2022-08-01T02:04:42;26.20;39.40
3868;DHT22;1949;48.152;11.528;2022-08-01T02:07:09;26.20;39.40
3868;DHT22;1949;48.152;11.528;2022-08-01T02:09:37;26.20;39.50
3868;DHT22;1949;48.152;11.528;2022-08-01T02:12:04;26.20;39.40
3868;DHT22;1949;48.152;11.528;2022-08-01T02:14:33;26.10;39.30
3868;DHT22;1949;48.152;11.528;2022-08-01T02:17:06;26.10;39.40
3868;DHT22;1949;48.152;11.528;2022-08-01T02:19:33;26.10;39.50
3868;DHT22;1949;48.152;11.528;2022-08-01T02:25:05;26.00;39.30
3868;DHT22;1949;48.152;11.528;2022-08-01T02:27:45;25.90;39.30
3868;DHT22;1949;48.152;11.528;2022-08-01T02:30:19;25.90;39.50
3868;DHT22;1949;48.152;11.528;2022-08-01T02:32:51;25.90;39.60
3868;DHT22;1949;48.152;11.528;2022-08-01T02:35:24;25.90;39.60
3868;DHT22;1949;48.152;11.528;2022-08-01T02:37:53;26.00;39.50
3868;DHT22;1949;48.152;11.528;2022-08-01T02:40:19;26.00;39.60
3868;DHT22;1949;48.152;11.528;2022-08-01T02:42:50;26.00;39.50
3868;DHT22;1949;48.152;11.528;2022-08-01T02:45:18;25.90;39.50
3868;DHT22;1949;48.152;11.528;2022-08-01T02:47:48;25.90;39.60
3868;DHT22;1949;48.152;11.528;2022-08-01T02:50:16;25.90;39.60
3868;DHT22;1949;48.152;11.528;2022-08-01T02:52:47;25.90;39.60
3868;DHT22;1949;48.152;11.528;2022-08-01T02:55:14;25.80;39.60
3868;DHT22;1949;48.152;11.528;2022-08-01T02:57:42;25.80;39.70
3868;DHT22;1949;48.152;11.528;2022-08-01T03:00:10;25.80;39.70
3868;DHT22;1949;48.152;11.528;2022-08-01T03:02:37;25.70;39.50
3868;DHT22;1949;48.152;11.528;2022-08-01T03:05:05;25.70;39.60
3868;DHT22;1949;48.152;11.528;2022-08-01T03:07:34;25.70;39.60
3868;DHT22;1949;48.152;11.528;2022-08-01T03:10:02;25.70;39.70
3868;DHT22;1949;48.152;11.528;2022-08-01T03:12:30;25.70;39.60
3868;DHT22;1949;48.152;11.528;2022-08-01T03:14:58;25.70;39.70
3868;DHT22;1949;48.152;11.528;2022-08-01T03:17:27;25.60;39.50
3868;DHT22;1949;48.152;11.528;2022-08-01T03:19:54;25.60;39.60
3868;DHT22;1949;48.152;11.528;2022-08-01T03:22:23;25.60;39.70
3868;DHT22;1949;48.152;11.528;2022-08-01T03:24:52;25.60;39.80
3868;DHT22;1949;48.152;11.528;2022-08-01T03:27:22;25.60;39.80
3868;DHT22;1949;48.152;11.528;2022-08-01T03:29:51;25.50;39.70
3868;DHT22;1949;48.152;11.528;2022-08-01T03:32:21;25.50;39.70
3868;DHT22;1949;48.152;11.528;2022-08-01T03:34:47;25.50;39.80
3868;DHT22;1949;48.152;11.528;2022-08-01T03:37:46;25.50;39.90
3868;DHT22;1949;48.152;11.528;2022-08-01T03:40:24;25.40;39.80
3868;DHT22;1949;48.152;11.528;2022-08-01T03:42:58;25.40;39.90
3868;DHT22;1949;48.152;11.528;2022-08-01T03:45:35;25.40;40.00
3868;DHT22;1949;48.152;11.528;2022-08-01T03:48:08;25.50;40.00
3868;DHT22;1949;48.152;11.528;2022-08-01T03:50:36;25.50;40.00
3868;DHT22;1949;48.152;11.528;2022-08-01T03:53:06;25.50;40.00
3868;DHT22;1949;48.152;11.528;2022-08-01T03:55:33;25.50;40.00
3868;DHT22;1949;48.152;11.528;2022-08-01T03:58:04;25.60;40.00
3868;DHT22;1949;48.152;11.528;2022-08-01T04:00:30;25.60;40.00
3868;DHT22;1949;48.152;11.528;2022-08-01T04:02:59;25.60;40.00
3868;DHT22;1949;48.152;11.528;2022-08-01T04:05:25;25.60;40.00
3868;DHT22;1949;48.152;11.528;2022-08-01T04:07:52;25.60;40.00
3868;DHT22;1949;48.152;11.528;2022-08-01T04:10:24;25.60;40.00
3868;DHT22;1949;48.152;11.528;2022-08-01T04:12:51;25.50;39.90
3868;DHT22;1949;48.152;11.528;2022-08-01T04:15:17;25.50;40.00
3868;DHT22;1949;48.152;11.528;2022-08-01T04:17:43;25.50;40.00
3868;DHT22;1949;48.152;11.528;2022-08-01T04:20:10;25.50;40.10
3868;DHT22;1949;48.152;11.528;2022-08-01T04:22:36;25.50;40.00
3868;DHT22;1949;48.152;11.528;2022-08-01T04:25:17;25.50;40.10
3868;DHT22;1949;48.152;11.528;2022-08-01T04:27:49;25.50;40.10
3868;DHT22;1949;48.152;11.528;2022-08-01T04:30:21;25.50;40.20
3868;DHT22;1949;48.152;11.528;2022-08-01T04:32:52;25.50;40.00
3868;DHT22;1949;48.152;11.528;2022-08-01T04:35:20;25.50;40.10
3868;DHT22;1949;48.152;11.528;2022-08-01T04:37:48;25.50;40.60
3868;DHT22;1949;48.152;11.528;2022-08-01T04:40:17;25.50;40.10
3868;DHT22;1949;48.152;11.528;2022-08-01T04:42:44;25.50;40.10
3868;DHT22;1949;48.152;11.528;2022-08-01T04:45:10;25.50;40.10
3868;DHT22;1949;48.152;11.528;2022-08-01T04:47:36;25.50;40.10
3868;DHT22;1949;48.152;11.528;2022-08-01T04:50:06;25.50;40.20
3868;DHT22;1949;48.152;11.528;2022-08-01T04:52:37;25.50;40.20
3868;DHT22;1949;48.152;11.528;2022-08-01T04:55:04;25.40;40.10
3868;DHT22;1949;48.152;11.528;2022-08-01T04:57:34;25.40;40.30
3868;DHT22;1949;48.152;11.528;2022-08-01T05:00:02;25.40;40.10
3868;DHT22;1949;48.152;11.528;2022-08-01T05:02:32;25.40;40.10
3868;DHT22;1949;48.152;11.528;2022-08-01T05:04:58;25.40;40.20
3868;DHT22;1949;48.152;11.528;2022-08-01T05:07:23;25.50;40.30
3868;DHT22;1949;48.152;11.528;2022-08-01T05:09:50;25.50;40.20
3868;DHT22;1949;48.152;11.528;2022-08-01T05:12:18;25.50;40.20
3868;DHT22;1949;48.152;11.528;2022-08-01T05:14:45;25.50;40.20
3868;DHT22;1949;48.152;11.528;2022-08-01T05:17:13;25.50;40.30
3868;DHT22;1949;48.152;11.528;2022-08-01T05:19:39;25.50;40.20
3868;DHT22;1949;48.152;11.528;2022-08-01T05:22:11;25.60;40.20
3868;DHT22;1949;48.152;11.528;2022-08-01T05:24:39;25.60;40.20
3868;DHT22;1949;48.152;11.528;2022-08-01T05:27:05;25.60;40.20
3868;DHT22;1949;48.152;11.528;2022-08-01T05:29:33;25.60;40.20
3868;DHT22;1949;48.152;11.528;2022-08-01T05:31:59;25.60;40.10
3868;DHT22;1949;48.152;11.528;2022-08-01T05:34:27;25.60;40.10
3868;DHT22;1949;48.152;11.528;2022-08-01T05:36:56;25.60;40.20
3868;DHT22;1949;48.152;11.528;2022-08-01T05:39:21;25.50;40.20
3868;DHT22;1949;48.152;11.528;2022-08-01T05:41:48;25.50;40.30
3868;DHT22;1949;48.152;11.528;2022-08-01T05:44:15;25.50;40.40
3868;DHT22;1949;48.152;11.528;2022-08-01T05:46:42;25.50;40.40
3868;DHT22;1949;48.152;11.528;2022-08-01T05:49:09;25.60;40.40
3868;DHT22;1949;48.152;11.528;2022-08-01T05:51:34;25.60;40.50
3868;DHT22;1949;48.152;11.528;2022-08-01T05:54:06;25.60;40.40
3868;DHT22;1949;48.152;11.528;2022-08-01T05:56:33;25.60;40.40
3868;DHT22;1949;48.152;11.528;2022-08-01T05:58:59;25.60;40.30
3868;DHT22;1949;48.152;11.528;2022-08-01T06:01:25;25.60;40.40
3868;DHT22;1949;48.152;11.528;2022-08-01T06:03:54;25.70;40.50
3868;DHT22;1949;48.152;11.528;2022-08-01T06:06:21;25.70;40.40
3868;DHT22;1949;48.152;11.528;2022-08-01T06:08:48;25.70;40.30
3868;DHT22;1949;48.152;11.528;2022-08-01T06:11:15;25.70;40.20
3868;DHT22;1949;48.152;11.528;2022-08-01T06:13:46;25.70;40.20
3868;DHT22;1949;48.152;11.528;2022-08-01T06:16:13;25.70;40.20
3868;DHT22;1949;48.152;11.528;2022-08-01T06:18:40;25.80;40.40
3868;DHT22;1949;48.152;11.528;2022-08-01T06:21:05;25.80;40.20
3868;DHT22;1949;48.152;11.528;2022-08-01T06:23:31;25.80;40.20
3868;DHT22;1949;48.152;11.528;2022-08-01T06:26:00;25.80;40.20
3868;DHT22;1949;48.152;11.528;2022-08-01T06:28:26;25.90;40.20
3868;DHT22;1949;48.152;11.528;2022-08-01T06:30:51;25.90;40.20
3868;DHT22;1949;48.152;11.528;2022-08-01T06:33:17;25.90;40.20
3868;DHT22;1949;48.152;11.528;2022-08-01T06:35:44;25.90;40.10
3868;DHT22;1949;48.152;11.528;2022-08-01T06:38:09;25.90;40.00
3868;DHT22;1949;48.152;11.528;2022-08-01T06:40:35;26.00;40.10
3868;DHT22;1949;48.152;11.528;2022-08-01T06:43:02;26.00;40.20
3868;DHT22;1949;48.152;11.528;2022-08-01T06:45:28;26.00;40.30
3868;DHT22;1949;48.152;11.528;2022-08-01T06:47:54;26.00;40.20
3868;DHT22;1949;48.152;11.528;2022-08-01T06:50:20;26.00;40.10
3868;DHT22;1949;48.152;11.528;2022-08-01T06:52:46;26.10;40.50
3868;DHT22;1949;48.152;11.528;2022-08-01T06:55:13;26.10;40.40
3868;DHT22;1949;48.152;11.528;2022-08-01T06:57:49;26.10;40.30
3868;DHT22;1949;48.152;11.528;2022-08-01T07:00:16;26.10;40.20
3868;DHT22;1949;48.152;11.528;2022-08-01T07:02:44;26.10;40.00
3868;DHT22;1949;48.152;11.528;2022-08-01T07:05:11;26.10;40.00
3868;DHT22;1949;48.152;11.528;2022-08-01T07:07:39;26.10;40.20
3868;DHT22;1949;48.152;11.528;2022-08-01T07:10:05;26.20;40.10
3868;DHT22;1949;48.152;11.528;2022-08-01T07:12:31;26.20;40.10
3868;DHT22;1949;48.152;11.528;2022-08-01T07:14:58;26.20;40.10
3868;DHT22;1949;48.152;11.528;2022-08-01T07:17:24;26.20;40.20
3868;DHT22;1949;48.152;11.528;2022-08-01T07:19:51;26.20;40.20
3868;DHT22;1949;48.152;11.528;2022-08-01T07:22:16;26.30;40.20
3868;DHT22;1949;48.152;11.528;2022-08-01T07:24:42;26.30;40.20
3868;DHT22;1949;48.152;11.528;2022-08-01T07:27:08;26.30;40.10
3868;DHT22;1949;48.152;11.528;2022-08-01T07:29:34;26.30;40.20
3868;DHT22;1949;48.152;11.528;2022-08-01T07:32:00;26.30;40.20
3868;DHT22;1949;48.152;11.528;2022-08-01T07:34:28;26.30;40.20
3868;DHT22;1949;48.152;11.528;2022-08-01T07:36:54;26.30;40.80
3868;DHT22;1949;48.152;11.528;2022-08-01T07:39:19;26.40;40.30
3868;DHT22;1949;48.152;11.528;2022-08-01T07:41:45;26.40;40.20
3868;DHT22;1949;48.152;11.528;2022-08-01T07:44:11;26.40;40.20
3868;DHT22;1949;48.152;11.528;2022-08-01T07:46:37;26.40;40.20
3868;DHT22;1949;48.152;11.528;2022-08-01T07:49:03;26.40;40.10
3868;DHT22;1949;48.152;11.528;2022-08-01T07:51:28;26.50;40.30
3868;DHT22;1949;48.152;11.528;2022-08-01T07:53:54;26.50;40.10
3868;DHT22;1949;48.152;11.528;2022-08-01T07:56:20;26.50;40.10
3868;DHT22;1949;48.152;11.528;2022-08-01T07:58:45;26.40;40.00
3868;DHT22;1949;48.152;11.528;2022-08-01T08:01:12;26.50;40.10
3868;DHT22;1949;48.152;11.528;2022-08-01T08:03:38;26.50;40.20
3868;DHT22;1949;48.152;11.528;2022-08-01T08:06:04;26.50;40.10
3868;DHT22;1949;48.152;11.528;2022-08-01T08:08:30;26.60;40.30
3868;DHT22;1949;48.152;11.528;2022-08-01T08:10:56;26.60;40.20
3868;DHT22;1949;48.152;11.528;2022-08-01T08:13:21;26.60;40.20
3868;DHT22;1949;48.152;11.528;2022-08-01T08:15:47;26.60;40.20
3868;DHT22;1949;48.152;11.528;2022-08-01T08:18:15;26.60;40.30
3868;DHT22;1949;48.152;11.528;2022-08-01T08:20:41;26.70;40.20
3868;DHT22;1949;48.152;11.528;2022-08-01T08:23:08;26.70;40.20
3868;DHT22;1949;48.152;11.528;2022-08-01T08:25:53;26.70;40.20
3868;DHT22;1949;48.152;11.528;2022-08-01T08:28:18;26.70;40.20
3868;DHT22;1949;48.152;11.528;2022-08-01T08:30:44;26.60;40.20
3868;DHT22;1949;48.152;11.528;2022-08-01T08:33:09;26.70;40.40
3868;DHT22;1949;48.152;11.528;2022-08-01T08:35:39;26.70;40.40
3868;DHT22;1949;48.152;11.528;2022-08-01T08:38:05;26.70;40.50
3868;DHT22;1949;48.152;11.528;2022-08-01T08:40:35;26.70;40.40
3868;DHT22;1949;48.152;11.528;2022-08-01T08:43:03;26.80;40.50
3868;DHT22;1949;48.152;11.528;2022-08-01T08:45:29;26.80;40.40
3868;DHT22;1949;48.152;11.528;2022-08-01T08:47:57;26.80;40.30
3868;DHT22;1949;48.152;11.528;2022-08-01T08:50:24;26.80;40.40
3868;DHT22;1949;48.152;11.528;2022-08-01T08:52:53;26.80;40.30
3868;DHT22;1949;48.152;11.528;2022-08-01T08:55:33;26.80;40.20
3868;DHT22;1949;48.152;11.528;2022-08-01T08:58:05;26.80;40.20
3868;DHT22;1949;48.152;11.528;2022-08-01T09:00:32;26.80;40.30
3868;DHT22;1949;48.152;11.528;2022-08-01T09:02:59;26.80;40.30
3868;DHT22;1949;48.152;11.528;2022-08-01T09:05:25;26.80;40.40
3868;DHT22;1949;48.152;11.528;2022-08-01T09:07:54;26.90;40.40
3868;DHT22;1949;48.152;11.528;2022-08-01T09:10:20;26.90;40.40
3868;DHT22;1949;48.152;11.528;2022-08-01T09:13:11;26.90;40.40
3868;DHT22;1949;48.152;11.528;2022-08-01T09:15:49;27.00;40.40
3868;DHT22;1949;48.152;11.528;2022-08-01T09:18:38;27.00;40.30
3868;DHT22;1949;48.152;11.528;2022-08-01T09:21:17;27.10;40.30
3868;DHT22;1949;48.152;11.528;2022-08-01T09:23:45;27.10;40.20
3868;DHT22;1949;48.152;11.528;2022-08-01T09:26:14;27.10;40.20
3868;DHT22;1949;48.152;11.528;2022-08-01T09:28:40;27.10;40.30
3868;DHT22;1949;48.152;11.528;2022-08-01T09:31:13;27.10;40.20
3868;DHT22;1949;48.152;11.528;2022-08-01T09:33:57;27.20;40.20
3868;DHT22;1949;48.152;11.528;2022-08-01T09:36:25;27.20;40.00
3868;DHT22;1949;48.152;11.528;2022-08-01T09:38:56;27.20;39.90
3868;DHT22;1949;48.152;11.528;2022-08-01T09:41:36;27.20;39.80
3868;DHT22;1949;48.152;11.528;2022-08-01T09:44:02;27.20;39.90
3868;DHT22;1949;48.152;11.528;2022-08-01T09:46:28;27.20;39.80
3868;DHT22;1949;48.152;11.528;2022-08-01T09:51:37;27.20;39.50
3868;DHT22;1949;48.152;11.528;2022-08-01T09:54:06;27.20;39.70
3868;DHT22;1949;48.152;11.528;2022-08-01T09:56:40;27.20;39.70
3868;DHT22;1949;48.152;11.528;2022-08-01T09:59:08;27.30;39.70
3868;DHT22;1949;48.152;11.528;2022-08-01T10:01:45;27.30;39.70
3868;DHT22;1949;48.152;11.528;2022-08-01T10:04:17;27.30;39.70
3868;DHT22;1949;48.152;11.528;2022-08-01T10:06:45;27.30;39.70
3868;DHT22;1949;48.152;11.528;2022-08-01T10:09:13;27.40;39.70
3868;DHT22;1949;48.152;11.528;2022-08-01T10:11:43;27.40;39.60
3868;DHT22;1949;48.152;11.528;2022-08-01T10:14:09;27.40;39.50
3868;DHT22;1949;48.152;11.528;2022-08-01T10:16:38;27.40;39.50
3868;DHT22;1949;48.152;11.528;2022-08-01T10:19:06;27.40;39.50
3868;DHT22;1949;48.152;11.528;2022-08-01T10:21:33;27.40;39.50
3868;DHT22;1949;48.152;11.528;2022-08-01T10:24:02;27.50;39.50
3868;DHT22;1949;48.152;11.528;2022-08-01T10:26:32;27.50;39.40
3868;DHT22;1949;48.152;11.528;2022-08-01T10:29:00;27.50;39.40
3868;DHT22;1949;48.152;11.528;2022-08-01T10:31:27;27.50;39.30
3868;DHT22;1949;48.152;11.528;2022-08-01T10:33:57;27.50;39.30
3868;DHT22;1949;48.152;11.528;2022-08-01T10:36:26;27.50;39.20
3868;DHT22;1949;48.152;11.528;2022-08-01T10:38:55;27.60;39.20
3868;DHT22;1949;48.152;11.528;2022-08-01T10:41:21;27.60;39.10
3868;DHT22;1949;48.152;11.528;2022-08-01T10:43:48;27.60;39.10
3868;DHT22;1949;48.152;11.528;2022-08-01T10:46:31;27.60;39.00
3868;DHT22;1949;48.152;11.528;2022-08-01T10:49:17;27.60;39.10
3868;DHT22;1949;48.152;11.528;2022-08-01T10:51:46;27.70;39.10
3868;DHT22;1949;48.152;11.528;2022-08-01T10:54:12;27.70;39.00
3868;DHT22;1949;48.152;11.528;2022-08-01T10:56:49;27.80;39.00
3868;DHT22;1949;48.152;11.528;2022-08-01T10:59:27;27.80;39.00
3868;DHT22;1949;48.152;11.528;2022-08-01T11:02:02;27.80;38.90
3868;DHT22;1949;48.152;11.528;2022-08-01T11:07:20;27.90;38.90
3868;DHT22;1949;48.152;11.528;2022-08-01T11:09:58;27.90;38.90
3868;DHT22;1949;48.152;11.528;2022-08-01T11:12:41;27.90;38.80
3868;DHT22;1949;48.152;11.528;2022-08-01T11:15:20;27.90;38.70
3868;DHT22;1949;48.152;11.528;2022-08-01T11:18:03;28.00;38.70
3868;DHT22;1949;48.152;11.528;2022-08-01T11:20:35;28.00;38.60
3868;DHT22;1949;48.152;11.528;2022-08-01T11:33:14;28.10;38.40
3868;DHT22;1949;48.152;11.528;2022-08-01T11:41:27;28.10;38.00
3868;DHT22;1949;48.152;11.528;2022-08-01T11:44:05;28.10;37.90
3868;DHT22;1949;48.152;11.528;2022-08-01T11:46:55;28.10;37.70
3868;DHT22;1949;48.152;11.528;2022-08-01T11:54:34;28.20;37.80
3868;DHT22;1949;48.152;11.528;2022-08-01T11:57:04;28.20;38.30
3868;DHT22;1949;48.152;11.528;2022-08-01T11:59:47;28.30;37.80
3868;DHT22;1949;48.152;11.528;2022-08-01T12:02:16;28.30;37.70
3868;DHT22;1949;48.152;11.528;2022-08-01T12:04:54;28.30;37.60
3868;DHT22;1949;48.152;11.528;2022-08-01T12:07:21;28.40;37.30
3868;DHT22;1949;48.152;11.528;2022-08-01T12:12:35;28.50;37.20
3868;DHT22;1949;48.152;11.528;2022-08-01T12:15:04;28.60;36.80
3868;DHT22;1949;48.152;11.528;2022-08-01T12:17:47;28.60;36.70
3868;DHT22;1949;48.152;11.528;2022-08-01T12:20:19;28.70;36.80
3868;DHT22;1949;48.152;11.528;2022-08-01T12:22:45;28.80;36.70
3868;DHT22;1949;48.152;11.528;2022-08-01T12:25:16;28.80;36.40
3868;DHT22;1949;48.152;11.528;2022-08-01T12:27:44;28.90;36.40
3868;DHT22;1949;48.152;11.528;2022-08-01T12:30:17;28.90;36.10
3868;DHT22;1949;48.152;11.528;2022-08-01T12:32:50;29.00;36.00
3868;DHT22;1949;48.152;11.528;2022-08-01T12:35:23;29.10;35.90
3868;DHT22;1949;48.152;11.528;2022-08-01T12:37:58;29.10;35.70
3868;DHT22;1949;48.152;11.528;2022-08-01T12:40:36;29.00;35.60
3868;DHT22;1949;48.152;11.528;2022-08-01T12:43:08;29.00;35.60
3868;DHT22;1949;48.152;11.528;2022-08-01T12:45:39;29.00;35.40
3868;DHT22;1949;48.152;11.528;2022-08-01T12:48:11;29.00;35.40
3868;DHT22;1949;48.152;11.528;2022-08-01T12:50:39;29.10;35.50
3868;DHT22;1949;48.152;11.528;2022-08-01T12:53:08;29.20;35.20
3868;DHT22;1949;48.152;11.528;2022-08-01T12:58:14;29.30;34.90
3868;DHT22;1949;48.152;11.528;2022-08-01T13:00:44;29.40;34.70
3868;DHT22;1949;48.152;11.528;2022-08-01T13:03:15;29.50;34.60
3868;DHT22;1949;48.152;11.528;2022-08-01T13:08:32;29.50;34.40
3868;DHT22;1949;48.152;11.528;2022-08-01T13:11:05;29.40;34.50
3868;DHT22;1949;48.152;11.528;2022-08-01T13:13:40;29.40;34.50
3868;DHT22;1949;48.152;11.528;2022-08-01T13:16:07;29.30;34.60
3868;DHT22;1949;48.152;11.528;2022-08-01T13:18:34;29.30;34.80
3868;DHT22;1949;48.152;11.528;2022-08-01T13:21:08;29.20;35.50
3868;DHT22;1949;48.152;11.528;2022-08-01T13:23:41;29.10;36.00
3868;DHT22;1949;48.152;11.528;2022-08-01T13:26:08;29.00;36.30
3868;DHT22;1949;48.152;11.528;2022-08-01T13:28:34;28.90;36.60
3868;DHT22;1949;48.152;11.528;2022-08-01T13:31:06;28.90;36.80
3868;DHT22;1949;48.152;11.528;2022-08-01T13:33:47;28.90;37.10
3868;DHT22;1949;48.152;11.528;2022-08-01T13:36:13;28.90;37.30
3868;DHT22;1949;48.152;11.528;2022-08-01T13:38:41;28.90;37.30
3868;DHT22;1949;48.152;11.528;2022-08-01T13:41:29;28.90;37.30
3868;DHT22;1949;48.152;11.528;2022-08-01T13:43:58;28.90;37.40
3868;DHT22;1949;48.152;11.528;2022-08-01T13:46:24;28.90;37.50
3868;DHT22;1949;48.152;11.528;2022-08-01T13:48:50;28.90;37.30
3868;DHT22;1949;48.152;11.528;2022-08-01T13:51:15;28.80;37.10
3868;DHT22;1949;48.152;11.528;2022-08-01T13:53:42;28.80;36.90
3868;DHT22;1949;48.152;11.528;2022-08-01T13:56:12;28.80;36.90
3868;DHT22;1949;48.152;11.528;2022-08-01T13:58:38;28.80;37.00
3868;DHT22;1949;48.152;11.528;2022-08-01T14:01:03;28.80;37.00
3868;DHT22;1949;48.152;11.528;2022-08-01T14:03:29;28.80;37.00
3868;DHT22;1949;48.152;11.528;2022-08-01T14:05:56;28.70;36.60
3868;DHT22;1949;48.152;11.528;2022-08-01T14:08:23;28.70;36.50
3868;DHT22;1949;48.152;11.528;2022-08-01T14:10:49;28.70;36.30
3868;DHT22;1949;48.152;11.528;2022-08-01T14:13:14;28.70;36.60
3868;DHT22;1949;48.152;11.528;2022-08-01T14:15:41;28.70;36.80
3868;DHT22;1949;48.152;11.528;2022-08-01T14:18:07;28.60;36.90
3868;DHT22;1949;48.152;11.528;2022-08-01T14:20:35;28.50;37.00
3868;DHT22;1949;48.152;11.528;2022-08-01T14:23:08;28.50;37.40
3868;DHT22;1949;48.152;11.528;2022-08-01T14:25:37;28.50;37.60
3868;DHT22;1949;48.152;11.528;2022-08-01T14:28:03;28.50;37.80
3868;DHT22;1949;48.152;11.528;2022-08-01T14:30:30;28.50;38.00
3868;DHT22;1949;48.152;11.528;2022-08-01T14:32:59;28.50;38.20
3868;DHT22;1949;48.152;11.528;2022-08-01T14:35:27;28.50;38.40
3868;DHT22;1949;48.152;11.528;2022-08-01T14:37:53;28.50;38.40
3868;DHT22;1949;48.152;11.528;2022-08-01T14:40:19;28.50;38.50
3868;DHT22;1949;48.152;11.528;2022-08-01T14:42:44;28.50;38.50
3868;DHT22;1949;48.152;11.528;2022-08-01T14:45:13;28.50;38.70
3868;DHT22;1949;48.152;11.528;2022-08-01T14:47:40;28.50;38.80
3868;DHT22;1949;48.152;11.528;2022-08-01T14:50:10;28.50;38.80
3868;DHT22;1949;48.152;11.528;2022-08-01T14:52:37;28.50;38.70
3868;DHT22;1949;48.152;11.528;2022-08-01T14:55:04;28.50;38.80
3868;DHT22;1949;48.152;11.528;2022-08-01T14:57:30;28.50;38.80
3868;DHT22;1949;48.152;11.528;2022-08-01T14:59:58;28.50;38.70
3868;DHT22;1949;48.152;11.528;2022-08-01T15:02:26;28.50;38.80
3868;DHT22;1949;48.152;11.528;2022-08-01T15:04:52;28.40;38.80
3868;DHT22;1949;48.152;11.528;2022-08-01T15:07:18;28.40;38.70
3868;DHT22;1949;48.152;11.528;2022-08-01T15:09:45;28.30;38.80
3868;DHT22;1949;48.152;11.528;2022-08-01T15:12:12;28.30;38.90
3868;DHT22;1949;48.152;11.528;2022-08-01T15:14:38;28.30;39.10
3868;DHT22;1949;48.152;11.528;2022-08-01T15:17:16;28.30;39.30
3868;DHT22;1949;48.152;11.528;2022-08-01T15:19:43;28.30;39.30
3868;DHT22;1949;48.152;11.528;2022-08-01T15:22:09;28.30;39.40
3868;DHT22;1949;48.152;11.528;2022-08-01T15:24:35;28.30;39.10
3868;DHT22;1949;48.152;11.528;2022-08-01T15:27:01;28.30;39.10
3868;DHT22;1949;48.152;11.528;2022-08-01T15:29:29;28.20;38.90
3868;DHT22;1949;48.152;11.528;2022-08-01T15:31:55;28.20;39.10
3868;DHT22;1949;48.152;11.528;2022-08-01T15:34:22;28.20;39.30
3868;DHT22;1949;48.152;11.528;2022-08-01T15:36:48;28.10;39.40
3868;DHT22;1949;48.152;11.528;2022-08-01T15:39:14;28.10;39.70
3868;DHT22;1949;48.152;11.528;2022-08-01T15:41:40;28.10;39.90
3868;DHT22;1949;48.152;11.528;2022-08-01T15:44:10;28.10;40.10
3868;DHT22;1949;48.152;11.528;2022-08-01T15:46:40;28.00;40.20
3868;DHT22;1949;48.152;11.528;2022-08-01T15:49:07;28.00;40.30
3868;DHT22;1949;48.152;11.528;2022-08-01T15:51:33;28.00;40.50
3868;DHT22;1949;48.152;11.528;2022-08-01T15:53:59;28.00;40.40
3868;DHT22;1949;48.152;11.528;2022-08-01T15:56:29;28.00;40.50
3868;DHT22;1949;48.152;11.528;2022-08-01T15:58:56;28.00;40.50
3868;DHT22;1949;48.152;11.528;2022-08-01T16:01:22;27.90;40.50
3868;DHT22;1949;48.152;11.528;2022-08-01T16:03:47;27.90;40.50
3868;DHT22;1949;48.152;11.528;2022-08-01T16:06:14;27.90;40.50
3868;DHT22;1949;48.152;11.528;2022-08-01T16:08:39;27.90;40.70
3868;DHT22;1949;48.152;11.528;2022-08-01T16:11:05;27.90;40.70
3868;DHT22;1949;48.152;11.528;2022-08-01T16:13:31;27.90;40.80
3868;DHT22;1949;48.152;11.528;2022-08-01T16:15:57;27.90;40.80
3868;DHT22;1949;48.152;11.528;2022-08-01T16:18:24;27.90;40.80
3868;DHT22;1949;48.152;11.528;2022-08-01T16:20:50;27.80;40.70
3868;DHT22;1949;48.152;11.528;2022-08-01T16:23:16;27.80;40.90
3868;DHT22;1949;48.152;11.528;2022-08-01T16:25:42;27.80;40.90
3868;DHT22;1949;48.152;11.528;2022-08-01T16:28:16;27.70;41.00
3868;DHT22;1949;48.152;11.528;2022-08-01T16:30:43;27.70;41.00
3868;DHT22;1949;48.152;11.528;2022-08-01T16:33:15;27.70;41.00
3868;DHT22;1949;48.152;11.528;2022-08-01T16:35:50;27.60;41.00
3868;DHT22;1949;48.152;11.528;2022-08-01T16:38:19;27.50;41.10
3868;DHT22;1949;48.152;11.528;2022-08-01T16:40:51;27.50;41.10
3868;DHT22;1949;48.152;11.528;2022-08-01T16:43:20;27.50;41.10
3868;DHT22;1949;48.152;11.528;2022-08-01T16:45:48;27.50;41.00